Time;durP1;ratioP1;P1;durP2;ratioP2;P2;SDS_P1;SDS_P2;PMS_P1;PMS_P2;Temp;Humidity;BMP_temperature;BMP_pressure;BME280_temperature;BME280_humidity;BME280_pressure;Samples;Min_cycle;Max_cycle;Signal;HPM_P1;HPM_P2
2022/10/29 00:01:47;;;;;;;13.32;4.30;;;;;;;10.26;100.00;96307.78;5067108;28;20504;-75
2022/10/29 00:04:13;;;;;;;20.55;4.28;;;;;;;10.23;100.00;96304.63;5056032;28;20044;-76
2022/10/29 00:06:38;;;;;;;14.15;3.75;;;;;;;10.22;100.00;96312.75;5056797;28;20029;-76
2022/10/29 00:09:04;;;;;;;9.50;3.95;;;;;;;10.20;100.00;96320.88;5067689;28;20043;-76
2022/10/29 00:11:30;;;;;;;15.57;5.47;;;;;;;10.22;100.00;96318.78;5071860;28;20072;-76
2022/10/29 00:13:58;;;;;;;15.60;4.15;;;;;;;10.26;100.00;96318.31;5071193;28;20120;-76
2022/10/29 00:16:33;;;;;;;12.95;4.03;;;;;;;10.21;100.00;96317.22;5060577;28;20045;-76
2022/10/29 00:18:58;;;;;;;14.60;4.38;;;;;;;10.25;100.00;96311.47;5062589;28;20059;-74
2022/10/29 00:21:25;;;;;;;15.07;3.85;;;;;;;10.33;100.00;96309.19;5065843;28;20043;-75
2022/10/29 00:23:51;;;;;;;14.43;4.25;;;;;;;10.35;100.00;96312.38;5070195;28;20055;-75
2022/10/29 00:26:18;;;;;;;12.57;4.32;;;;;;;10.33;100.00;96311.00;5065091;28;20041;-73
2022/10/29 00:28:44;;;;;;;11.25;3.67;;;;;;;10.30;100.00;96308.88;5061864;28;20086;-75
2022/10/29 00:31:23;;;;;;;15.52;4.47;;;;;;;10.34;100.00;96312.63;5071117;28;20044;-76
2022/10/29 00:33:49;;;;;;;17.63;4.80;;;;;;;10.30;100.00;96314.13;5066969;28;20583;-74
2022/10/29 00:36:17;;;;;;;17.95;4.15;;;;;;;10.28;100.00;96300.44;5062878;28;20153;-75
2022/10/29 00:38:43;;;;;;;19.48;4.88;;;;;;;10.30;100.00;96298.34;5070048;28;20048;-74
2022/10/29 00:41:15;;;;;;;15.23;4.13;;;;;;;10.30;100.00;96303.63;5062105;28;20033;-75
2022/10/29 00:43:46;;;;;;;11.13;3.67;;;;;;;10.25;100.00;96311.47;5053486;28;20041;-74
2022/10/29 00:46:34;;;;;;;17.48;4.65;;;;;;;10.27;100.00;96312.00;5056174;28;20037;-75
2022/10/29 00:49:01;;;;;;;26.23;4.47;;;;;;;10.25;100.00;96308.84;5061109;28;20083;-75
2022/10/29 00:51:30;;;;;;;16.75;4.07;;;;;;;10.23;100.00;96309.09;5065460;28;20041;-75
2022/10/29 00:54:03;;;;;;;15.00;4.30;;;;;;;10.14;100.00;96311.38;5058010;28;20044;-75
2022/10/29 00:56:34;;;;;;;17.40;4.88;;;;;;;10.16;100.00;96311.13;5061200;28;20037;-75
2022/10/29 00:59:00;;;;;;;13.10;4.07;;;;;;;10.15;100.00;96306.88;5060487;28;20040;-75
2022/10/29 01:01:26;;;;;;;15.15;4.15;;;;;;;10.07;100.00;96310.75;5056121;28;20086;-75
2022/10/29 01:03:53;;;;;;;15.55;3.80;;;;;;;10.02;100.00;96315.94;5052339;28;20102;-75
2022/10/29 01:06:19;;;;;;;11.85;4.00;;;;;;;9.98;100.00;96312.22;5064580;28;20758;-75
2022/10/29 01:08:44;;;;;;;12.43;3.83;;;;;;;9.93;100.00;96307.69;5060536;28;20098;-75
2022/10/29 01:11:28;;;;;;;28.08;4.15;;;;;;;9.94;100.00;96319.00;5059024;28;20048;-75
2022/10/29 01:14:22;;;;;;;15.03;4.00;;;;;;;9.82;100.00;96319.91;5055728;28;20060;-75
2022/10/29 01:17:18;;;;;;;14.50;3.85;;;;;;;9.81;100.00;96314.91;5057970;28;20102;-75
2022/10/29 01:20:02;;;;;;;12.43;4.18;;;;;;;9.69;100.00;96315.03;5069270;28;20102;-75
2022/10/29 01:22:37;;;;;;;13.77;4.13;;;;;;;9.66;100.00;96320.78;5059448;28;20044;-74
2022/10/29 01:25:20;;;;;;;;;;;;;;;9.57;100.00;96327.47;5065450;28;20086;-74
2022/10/29 01:27:59;;;;;;;15.23;3.90;;;;;;;9.57;100.00;96333.53;5071167;28;20151;-74
2022/10/29 01:30:49;;;;;;;14.75;4.13;;;;;;;9.57;100.00;96327.47;5069375;28;20439;-74
2022/10/29 01:33:24;;;;;;;14.55;4.03;;;;;;;9.47;100.00;96326.31;5070379;28;20427;-74
2022/10/29 01:36:01;;;;;;;12.10;4.25;;;;;;;9.43;100.00;96317.31;5065468;28;20045;-74
2022/10/29 01:38:40;;;;;;;17.95;4.32;;;;;;;9.39;100.00;96326.72;5070833;28;20047;-74
2022/10/29 01:41:10;;;;;;;19.38;4.47;;;;;;;9.31;100.00;96329.72;5057160;28;20082;-74
2022/10/29 01:43:50;;;;;;;22.23;4.07;;;;;;;9.25;100.00;96328.06;5063690;28;20118;-74
2022/10/29 01:46:26;;;;;;;17.35;4.45;;;;;;;9.25;100.00;96322.81;5060687;28;20041;-74
2022/10/29 01:48:57;;;;;;;14.90;4.30;;;;;;;9.22;100.00;96320.69;5069556;28;20494;-74
2022/10/29 01:51:26;;;;;;;10.63;3.88;;;;;;;9.11;100.00;96315.28;5068608;28;20033;-74
2022/10/29 01:53:52;;;;;;;14.20;4.00;;;;;;;9.10;100.00;96318.94;5064434;28;20446;-74
2022/10/29 01:56:18;;;;;;;18.17;4.40;;;;;;;9.09;100.00;96316.56;5070103;28;20097;-74
2022/10/29 01:58:50;;;;;;;15.65;4.05;;;;;;;9.11;100.00;96320.53;5069912;28;20055;-74
2022/10/29 02:01:50;;;;;;;13.77;4.13;;;;;;;9.02;100.00;96327.22;5059979;28;20036;-75
2022/10/29 02:04:24;;;;;;;11.35;4.00;;;;;;;9.03;100.00;96328.81;5061404;28;20064;-75
2022/10/29 02:07:01;;;;;;;20.27;4.68;;;;;;;8.94;100.00;96309.25;5069350;28;20736;-74
2022/10/29 02:09:39;;;;;;;13.70;3.53;;;;;;;8.91;100.00;96320.22;5061864;28;20046;-74
2022/10/29 02:12:14;;;;;;;13.77;3.97;;;;;;;8.95;100.00;96322.13;5069465;28;20041;-74
2022/10/29 02:14:48;;;;;;;15.82;4.05;;;;;;;8.91;100.00;96325.47;5068907;28;20036;-74
2022/10/29 02:17:13;;;;;;;13.98;3.92;;;;;;;8.84;100.00;96315.91;5068407;28;20490;-74
2022/10/29 02:19:39;;;;;;;10.95;3.80;;;;;;;8.81;100.00;96321.63;5062234;28;20048;-73
2022/10/29 02:22:04;;;;;;;21.50;4.63;;;;;;;8.91;100.00;96314.97;5058818;28;20045;-74
2022/10/29 02:24:30;;;;;;;25.80;4.72;;;;;;;8.94;100.00;96319.75;5063140;28;20044;-74
2022/10/29 02:26:55;;;;;;;16.48;4.00;;;;;;;8.96;100.00;96317.66;5055257;28;20037;-74
2022/10/29 02:29:20;;;;;;;9.20;3.92;;;;;;;8.98;100.00;96310.38;5065168;28;20061;-74
2022/10/29 02:31:46;;;;;;;12.90;4.53;;;;;;;8.97;100.00;96314.81;5052477;28;20041;-73
2022/10/29 02:34:11;;;;;;;11.52;3.67;;;;;;;8.90;100.00;96310.75;5060789;28;20044;-74
2022/10/29 02:36:37;;;;;;;17.67;4.75;;;;;;;8.91;100.00;96310.50;5053194;28;20474;-74
2022/10/29 02:39:03;;;;;;;16.95;3.90;;;;;;;8.93;100.00;96307.66;5055998;28;20045;-74
2022/10/29 02:41:28;;;;;;;17.15;4.55;;;;;;;8.94;100.00;96314.50;5058819;28;20395;-74
2022/10/29 02:43:54;;;;;;;12.95;4.13;;;;;;;8.92;100.00;96311.31;5055036;28;20051;-74
2022/10/29 02:46:21;;;;;;;22.67;4.18;;;;;;;8.92;100.00;96300.78;5066605;28;20705;-74
2022/10/29 02:48:48;;;;;;;13.98;3.47;;;;;;;8.87;100.00;96303.38;5065318;28;20075;-74
2022/10/29 02:51:14;;;;;;;11.90;3.60;;;;;;;8.76;100.00;96290.06;5063027;28;20044;-74
2022/10/29 02:53:40;;;;;;;22.90;3.85;;;;;;;8.77;100.00;96294.28;5057206;28;20036;-74
2022/10/29 02:56:07;;;;;;;13.50;4.13;;;;;;;8.74;100.00;96289.50;5062046;28;20688;-74
2022/10/29 02:58:33;;;;;;;19.25;3.88;;;;;;;8.79;100.00;96289.59;5054766;28;20056;-74
2022/10/29 03:00:58;;;;;;;13.05;4.28;;;;;;;8.78;100.00;96290.63;5051922;28;20044;-73
2022/10/29 03:03:24;;;;;;;14.55;3.58;;;;;;;8.75;100.00;96291.09;5054179;28;20494;-73
2022/10/29 03:05:50;;;;;;;15.98;4.38;;;;;;;8.73;100.00;96293.16;5053271;28;20514;-74
2022/10/29 03:08:15;;;;;;;15.38;3.75;;;;;;;8.69;100.00;96286.78;5057541;28;20410;-74
2022/10/29 03:10:41;;;;;;;10.65;4.00;;;;;;;8.71;100.00;96294.44;5067026;28;20043;-74
2022/10/29 03:13:06;;;;;;;11.20;3.92;;;;;;;8.71;100.00;96295.22;5060791;28;20080;-73
2022/10/29 03:15:32;;;;;;;19.70;4.22;;;;;;;8.71;100.00;96300.47;5055502;28;20044;-74
2022/10/29 03:17:57;;;;;;;18.23;3.90;;;;;;;8.75;100.00;96293.72;5063494;28;20036;-74
2022/10/29 03:20:23;;;;;;;14.93;3.80;;;;;;;8.71;100.00;96300.47;5067376;28;20060;-73
2022/10/29 03:22:48;;;;;;;8.60;3.88;;;;;;;8.67;100.00;96294.13;5068932;28;20071;-74
2022/10/29 03:25:14;;;;;;;12.45;3.90;;;;;;;8.66;100.00;96303.00;5068141;28;20048;-74
2022/10/29 03:27:43;;;;;;;14.18;4.60;;;;;;;8.62;100.00;96291.38;5065435;28;20045;-75
2022/10/29 03:30:13;;;;;;;12.25;3.42;;;;;;;8.65;100.00;96301.44;5065372;28;20406;-74
2022/10/29 03:32:43;;;;;;;16.00;4.43;;;;;;;8.64;100.00;96308.50;5066989;28;20059;-74
2022/10/29 03:35:11;;;;;;;16.52;4.55;;;;;;;8.65;100.00;96301.44;5067337;28;20487;-74
2022/10/29 03:37:36;;;;;;;12.15;3.50;;;;;;;8.59;100.00;96305.00;5069385;28;20036;-75
2022/10/29 03:40:03;;;;;;;11.52;3.60;;;;;;;8.52;100.00;96306.97;5067429;28;20036;-75
2022/10/29 03:42:30;;;;;;;15.48;3.28;;;;;;;8.61;100.00;96302.94;5069459;28;20048;-75
2022/10/29 03:44:59;;;;;;;12.57;3.92;;;;;;;8.60;100.00;96307.38;5072003;28;20047;-75
2022/10/29 03:47:25;;;;;;;17.90;3.85;;;;;;;8.62;100.00;96312.38;5071695;28;20047;-74
2022/10/29 03:49:51;;;;;;;12.55;3.95;;;;;;;8.61;100.00;96305.56;5072426;28;20049;-74
2022/10/29 03:52:16;;;;;;;15.25;4.20;;;;;;;8.66;100.00;96303.00;5072031;28;20041;-74
2022/10/29 03:54:42;;;;;;;15.27;4.75;;;;;;;8.58;100.00;96300.78;5069851;28;20050;-74
2022/10/29 03:57:07;;;;;;;19.90;4.03;;;;;;;8.66;100.00;96308.25;5069557;28;20048;-74
2022/10/29 03:59:33;;;;;;;14.30;4.10;;;;;;;8.61;100.00;96295.84;5072311;28;20506;-74
2022/10/29 04:01:58;;;;;;;13.68;4.05;;;;;;;8.53;100.00;96292.81;5070544;28;20556;-74
2022/10/29 04:04:24;;;;;;;23.33;4.28;;;;;;;8.53;100.00;96290.19;5066689;28;20071;-75
2022/10/29 04:06:49;;;;;;;18.60;4.70;;;;;;;8.53;100.00;96293.63;5071888;28;20174;-75
2022/10/29 04:09:15;;;;;;;15.85;4.55;;;;;;;8.59;100.00;96292.69;5067384;28;20040;-74
2022/10/29 04:11:40;;;;;;;16.20;4.22;;;;;;;8.59;100.00;96287.44;5068108;28;20055;-75
2022/10/29 04:14:06;;;;;;;19.30;4.40;;;;;;;8.67;100.00;96288.88;5070457;28;20036;-74
2022/10/29 04:16:31;;;;;;;15.50;4.50;;;;;;;8.71;100.00;96300.47;5059244;28;20045;-74
2022/10/29 04:18:57;;;;;;;14.75;4.45;;;;;;;8.74;100.00;96291.34;5071378;28;20047;-74
2022/10/29 04:21:23;;;;;;;15.00;3.65;;;;;;;8.80;100.00;96288.53;5071899;28;20049;-74
2022/10/29 04:23:49;;;;;;;13.85;3.83;;;;;;;8.81;100.00;96279.66;5069019;28;20045;-74
2022/10/29 04:26:14;;;;;;;13.10;3.95;;;;;;;8.90;100.00;96292.38;5067508;28;20051;-74
2022/10/29 04:28:40;;;;;;;11.95;3.78;;;;;;;8.92;100.00;96292.94;5070850;28;20037;-74
2022/10/29 04:31:08;;;;;;;13.50;3.97;;;;;;;8.90;100.00;96292.38;5071527;28;20537;-74
2022/10/29 04:33:34;;;;;;;15.40;4.20;;;;;;;8.92;100.00;96300.78;5070798;28;20042;-74
2022/10/29 04:35:59;;;;;;;11.95;4.20;;;;;;;8.98;100.00;96302.50;5072245;28;20421;-74
2022/10/29 04:38:25;;;;;;;10.95;3.85;;;;;;;9.07;100.00;96298.41;5070444;28;20041;-74
2022/10/29 04:40:50;;;;;;;27.15;4.47;;;;;;;9.09;100.00;96293.72;5064224;28;20037;-74
2022/10/29 04:43:16;;;;;;;17.85;4.28;;;;;;;9.13;100.00;96297.44;5061312;28;20040;-74
2022/10/29 04:45:42;;;;;;;19.92;3.70;;;;;;;9.10;100.00;96286.66;5072384;28;20048;-76
2022/10/29 04:48:08;;;;;;;20.33;3.80;;;;;;;9.15;100.00;96294.56;5071031;28;20036;-76
2022/10/29 04:50:36;;;;;;;16.88;4.63;;;;;;;9.09;100.00;96293.72;5070982;28;20426;-76
2022/10/29 04:53:04;;;;;;;14.05;4.05;;;;;;;9.13;100.00;96291.41;5069468;28;20063;-75
2022/10/29 04:55:30;;;;;;;11.63;3.47;;;;;;;9.17;100.00;96280.19;5066064;28;20108;-76
2022/10/29 04:57:55;;;;;;;11.52;3.50;;;;;;;9.18;100.00;96287.03;5070914;28;20036;-76
2022/10/29 05:00:22;;;;;;;15.60;3.80;;;;;;;9.19;100.00;96275.50;5071717;28;20044;-76
2022/10/29 05:02:51;;;;;;;13.07;3.42;;;;;;;9.25;100.00;96281.63;5064963;28;20435;-76
2022/10/29 05:05:19;;;;;;;12.80;3.88;;;;;;;9.22;100.00;96273.41;5071769;28;20051;-76
2022/10/29 05:07:44;;;;;;;15.18;3.40;;;;;;;9.24;100.00;96271.31;5059159;28;20040;-76
2022/10/29 05:10:10;;;;;;;13.82;4.40;;;;;;;9.28;100.00;96267.19;5070761;28;20047;-76
2022/10/29 05:12:36;;;;;;;15.32;4.20;;;;;;;9.31;100.00;96272.75;5059934;28;20502;-76
2022/10/29 05:15:03;;;;;;;10.55;3.72;;;;;;;9.34;100.00;96276.75;5069721;28;20051;-77
2022/10/29 05:17:28;;;;;;;9.60;3.75;;;;;;;9.30;100.00;96270.38;5072103;28;20044;-75
2022/10/29 05:19:54;;;;;;;16.02;3.83;;;;;;;9.26;100.00;96264.00;5069721;28;20037;-76
2022/10/29 05:22:19;;;;;;;14.02;3.40;;;;;;;9.23;100.00;96269.75;5071383;28;20041;-77
2022/10/29 05:24:45;;;;;;;14.30;3.88;;;;;;;9.22;100.00;96278.66;5068226;28;20045;-76
2022/10/29 05:27:11;;;;;;;18.30;4.10;;;;;;;9.17;100.00;96276.75;5071409;28;20071;-75
2022/10/29 05:29:36;;;;;;;20.65;4.00;;;;;;;9.11;100.00;96278.53;5069775;28;20076;-75
2022/10/29 05:32:02;;;;;;;12.10;3.50;;;;;;;9.06;100.00;96275.81;5071078;28;20037;-77
2022/10/29 05:34:27;;;;;;;12.73;3.90;;;;;;;9.09;100.00;96291.06;5059798;28;20044;-75
2022/10/29 05:36:53;;;;;;;13.23;3.80;;;;;;;9.11;100.00;96294.28;5069788;28;20123;-72
2022/10/29 05:39:18;;;;;;;12.68;3.60;;;;;;;9.13;100.00;96286.94;5061500;28;20119;-73
2022/10/29 05:41:45;;;;;;;14.98;4.00;;;;;;;9.14;100.00;96288.53;5064057;28;20115;-75
2022/10/29 05:44:10;;;;;;;12.98;3.92;;;;;;;9.14;100.00;96285.91;5065572;28;20040;-73
2022/10/29 05:46:36;;;;;;;14.13;4.00;;;;;;;9.14;100.00;96272.78;5060596;28;20037;-74
2022/10/29 05:49:02;;;;;;;16.08;3.88;;;;;;;9.18;100.00;96279.16;5069471;28;20091;-73
2022/10/29 05:51:28;;;;;;;13.80;3.70;;;;;;;9.23;100.00;96275.00;5070045;28;20044;-72
2022/10/29 05:53:54;;;;;;;11.85;3.70;;;;;;;9.23;100.00;96281.03;5067829;28;20047;-73
2022/10/29 05:56:19;;;;;;;13.30;4.32;;;;;;;9.27;100.00;96281.38;5063944;28;20044;-74
2022/10/29 05:58:49;;;;;;;12.38;4.13;;;;;;;9.35;100.00;96283.56;5070126;28;20094;-72
2022/10/29 06:01:14;;;;;;;13.65;4.03;;;;;;;9.32;100.00;96278.81;5065931;28;20041;-72
2022/10/29 06:03:40;;;;;;;12.63;3.70;;;;;;;9.24;100.00;96276.56;5068698;28;20106;-71
2022/10/29 06:06:06;;;;;;;16.08;3.92;;;;;;;9.30;100.00;96286.13;5064009;28;20040;-70
2022/10/29 06:08:31;;;;;;;12.15;3.40;;;;;;;9.26;100.00;96280.56;5059414;28;20524;-71
2022/10/29 06:11:00;;;;;;;13.95;3.95;;;;;;;9.14;100.00;96280.66;5066122;28;20828;-72
2022/10/29 06:13:26;;;;;;;15.75;3.70;;;;;;;9.23;100.00;96288.94;5064921;28;20115;-71
2022/10/29 06:15:56;;;;;;;19.08;4.05;;;;;;;9.29;100.00;96301.09;5063368;28;20620;-72
2022/10/29 06:18:21;;;;;;;15.43;4.30;;;;;;;9.31;100.00;96306.09;5069514;28;20549;-71
2022/10/29 06:20:47;;;;;;;14.90;4.40;;;;;;;9.36;100.00;96306.19;5069277;28;20040;-72
2022/10/29 06:23:12;;;;;;;15.63;3.92;;;;;;;9.39;100.00;96310.94;5069135;28;20502;-72
2022/10/29 06:25:38;;;;;;;17.02;3.97;;;;;;;9.43;100.00;96313.91;5064955;28;20052;-72
2022/10/29 06:28:10;;;;;;;20.25;4.90;;;;;;;9.46;100.00;96306.31;5067146;28;20039;-73
2022/10/29 06:30:37;;;;;;;18.48;4.32;;;;;;;9.51;100.00;96303.75;5064057;28;20674;-72
2022/10/29 06:33:03;;;;;;;14.43;4.93;;;;;;;9.44;100.00;96303.16;5065221;28;20059;-73
2022/10/29 06:35:30;;;;;;;22.52;4.55;;;;;;;9.42;100.00;96305.19;5079755;28;20062;-73
2022/10/29 06:37:55;;;;;;;15.05;4.03;;;;;;;9.51;100.00;96302.94;5061584;28;20073;-73
2022/10/29 06:40:21;;;;;;;18.52;4.82;;;;;;;9.52;100.00;96294.84;5067973;28;20032;-74
2022/10/29 06:42:46;;;;;;;15.48;4.32;;;;;;;9.53;100.00;96296.41;5060518;28;20047;-74
2022/10/29 06:45:13;;;;;;;22.25;4.68;;;;;;;9.51;100.00;96298.50;5065408;28;20055;-73
2022/10/29 06:47:42;;;;;;;15.10;4.75;;;;;;;9.64;100.00;96304.44;5068583;28;20127;-71
2022/10/29 06:50:09;;;;;;;12.10;4.07;;;;;;;9.76;100.00;96309.59;5063575;28;20044;-72
2022/10/29 06:52:35;;;;;;;13.73;3.58;;;;;;;9.81;100.00;96307.81;5066485;28;20040;-74
2022/10/29 06:55:01;;;;;;;17.92;4.47;;;;;;;9.91;100.00;96316.88;5065903;28;20198;-71
2022/10/29 06:57:28;;;;;;;16.08;4.45;;;;;;;9.95;100.00;96320.59;5061280;28;20565;-71
2022/10/29 06:59:54;;;;;;;15.77;4.32;;;;;;;9.96;100.00;96314.31;5067323;28;20051;-72
2022/10/29 07:02:20;;;;;;;21.15;4.93;;;;;;;10.06;100.00;96314.41;5067621;28;20037;-72
2022/10/29 07:04:46;;;;;;;17.60;4.47;;;;;;;10.15;100.00;96318.19;5069011;28;20044;-72
2022/10/29 07:07:12;;;;;;;14.00;4.10;;;;;;;10.19;100.00;96319.28;5062995;28;20059;-72
2022/10/29 07:09:37;;;;;;;12.30;3.80;;;;;;;10.33;100.00;96319.72;5066669;28;20045;-72
2022/10/29 07:12:03;;;;;;;13.93;3.75;;;;;;;10.49;100.00;96323.31;5058552;28;20052;-72
2022/10/29 07:14:28;;;;;;;16.73;4.25;;;;;;;10.65;100.00;96320.84;5055225;28;20099;-73
2022/10/29 07:16:54;;;;;;;17.52;3.95;;;;;;;10.75;100.00;96311.19;5064387;28;20421;-73
2022/10/29 07:19:19;;;;;;;17.90;4.35;;;;;;;10.98;100.00;96316.38;5065535;28;20047;-71
2022/10/29 07:21:45;;;;;;;15.25;4.30;;;;;;;11.25;100.00;96316.31;5059860;28;20499;-73
2022/10/29 07:24:10;;;;;;;11.65;4.05;;;;;;;11.43;100.00;96320.38;5062813;28;20101;-73
2022/10/29 07:26:36;;;;;;;21.83;4.28;;;;;;;11.56;100.00;96319.91;5063600;28;20045;-73
2022/10/29 07:29:02;;;;;;;20.15;5.10;;;;;;;11.65;100.00;96316.78;5061093;28;20548;-72
2022/10/29 07:31:29;;;;;;;17.55;4.35;;;;;;;11.77;100.00;96309.47;5059928;28;20548;-72
2022/10/29 07:33:55;;;;;;;15.25;3.78;;;;;;;11.96;100.00;96315.91;5064761;28;20045;-73
2022/10/29 07:36:21;;;;;;;17.70;4.45;;;;;;;12.13;100.00;96322.84;5066091;28;20036;-73
2022/10/29 07:38:47;;;;;;;16.25;4.63;;;;;;;12.25;100.00;96320.75;5066130;28;20036;-73
2022/10/29 07:41:13;;;;;;;11.13;4.20;;;;;;;12.43;100.00;96322.13;5059840;28;20495;-73
2022/10/29 07:43:39;;;;;;;12.82;4.60;;;;;;;12.61;100.00;96322.69;5061515;28;20040;-73
2022/10/29 07:46:04;;;;;;;12.88;3.72;;;;;;;12.72;100.00;96328.78;5058160;28;20120;-73
2022/10/29 07:48:30;;;;;;;17.63;4.07;;;;;;;12.85;100.00;96322.97;5063004;28;20060;-73
2022/10/29 07:51:00;;;;;;;13.80;4.05;;;;;;;12.95;100.00;96328.25;5065943;28;20390;-74
2022/10/29 07:53:26;;;;;;;18.55;4.07;;;;;;;13.10;100.00;96324.03;5059022;28;20127;-73
2022/10/29 07:55:55;;;;;;;10.82;3.83;;;;;;;13.17;100.00;96319.25;5067220;28;20508;-74
2022/10/29 07:58:21;;;;;;;17.73;4.32;;;;;;;13.34;100.00;96325.09;5061357;28;20472;-73
2022/10/29 08:00:47;;;;;;;25.13;4.97;;;;;;;13.38;100.00;96319.28;5064167;28;20048;-73
2022/10/29 08:03:12;;;;;;;14.52;3.92;;;;;;;13.52;100.00;96325.63;5062667;28;20909;-74
2022/10/29 08:05:39;;;;;;;27.70;4.28;;;;;;;13.57;100.00;96320.28;5055592;28;20048;-73
2022/10/29 08:08:05;;;;;;;12.05;3.85;;;;;;;13.65;100.00;96319.75;5067911;28;20040;-74
2022/10/29 08:10:33;;;;;;;9.70;3.55;;;;;;;13.72;100.00;96308.09;5067814;28;20036;-74
2022/10/29 08:13:00;;;;;;;12.50;3.95;;;;;;;13.77;100.00;96311.50;5063156;28;20040;-73
2022/10/29 08:15:28;;;;;;;11.15;3.88;;;;;;;13.91;100.00;96306.44;5067567;28;20115;-74
2022/10/29 08:17:54;;;;;;;12.48;4.22;;;;;;;14.04;100.00;96310.38;5062577;28;20045;-75
2022/10/29 08:20:21;;;;;;;16.98;4.05;;;;;;;14.03;100.00;96304.25;5055720;28;20107;-75
2022/10/29 08:22:46;;;;;;;16.15;4.15;;;;;;;14.15;100.00;96316.38;5067388;28;20068;-73
2022/10/29 08:25:12;;;;;;;18.23;4.20;;;;;;;14.30;100.00;96307.59;5056215;28;20036;-75
2022/10/29 08:27:38;;;;;;;14.20;3.80;;;;;;;14.37;100.00;96302.78;5066052;28;20048;-73
2022/10/29 08:30:05;;;;;;;15.65;4.13;;;;;;;14.45;100.00;96310.16;5064013;28;20461;-73
2022/10/29 08:32:31;;;;;;;17.75;4.32;;;;;;;14.52;100.00;96309.84;5065915;28;20486;-73
2022/10/29 08:34:56;;;;;;;21.60;4.40;;;;;;;14.63;100.00;96311.38;5065513;28;20040;-75
2022/10/29 08:37:22;;;;;;;16.13;4.00;;;;;;;14.72;100.00;96308.94;5069141;28;20048;-72
2022/10/29 08:39:47;;;;;;;11.80;3.90;;;;;;;14.83;100.00;96304.38;5061944;28;20101;-72
2022/10/29 08:42:22;;;;;;;12.57;4.25;;;;;;;14.93;100.00;96309.59;5066297;28;20044;-72
2022/10/29 08:45:00;;;;;;;13.35;3.60;;;;;;;15.04;100.00;96305.78;5055682;28;20045;-72
2022/10/29 08:47:26;;;;;;;17.48;3.85;;;;;;;15.06;100.00;96306.28;5071465;28;20048;-72
2022/10/29 08:50:26;;;;;;;15.13;4.10;;;;;;;15.15;100.00;96305.69;5071429;28;20040;-72
2022/10/29 08:52:51;;;;;;;17.90;3.63;;;;;;;15.37;100.00;96298.06;5060039;28;20107;-72
2022/10/29 08:55:18;;;;;;;18.25;3.70;;;;;;;16.06;100.00;96300.53;5067996;28;20052;-72
2022/10/29 08:57:53;;;;;;;20.75;3.85;;;;;;;16.11;100.00;96300.44;5070805;28;20056;-72
2022/10/29 09:00:29;;;;;;;20.80;3.80;;;;;;;16.39;100.00;96294.50;5071448;28;20044;-73
2022/10/29 09:02:58;;;;;;;17.63;4.22;;;;;;;16.27;100.00;96302.91;5063853;28;20502;-73
2022/10/29 09:05:33;;;;;;;16.52;3.45;;;;;;;16.32;100.00;96300.19;5071903;28;20040;-72
2022/10/29 09:08:05;;;;;;;16.35;4.22;;;;;;;16.52;100.00;96301.78;5072191;28;20059;-72
2022/10/29 09:10:36;;;;;;;16.02;3.80;;;;;;;16.76;100.00;96299.00;5066115;28;20044;-72
2022/10/29 09:13:30;;;;;;;18.23;4.68;;;;;;;16.85;100.00;96303.66;5061300;28;20040;-72
2022/10/29 09:16:04;;;;;;;15.60;4.20;;;;;;;17.06;100.00;96296.19;5065214;28;20060;-72
2022/10/29 09:18:51;;;;;;;22.60;4.80;;;;;;;17.44;100.00;96296.88;5071550;28;20032;-72
2022/10/29 09:21:25;;;;;;;22.45;3.20;;;;;;;17.52;100.00;96298.03;5070878;28;20036;-72
2022/10/29 09:24:07;;;;;;;13.13;3.25;;;;;;;17.45;100.00;96293.09;5071067;28;20067;-72
2022/10/29 09:26:46;;;;;;;16.25;4.05;;;;;;;17.46;100.00;96300.00;5071617;28;20048;-72
2022/10/29 09:29:37;;;;;;;16.05;3.75;;;;;;;17.75;100.00;96301.59;5071095;28;20052;-71
2022/10/29 09:32:16;;;;;;;23.45;3.63;;;;;;;18.46;100.00;96303.94;5053927;28;20044;-72
2022/10/29 09:34:46;;;;;;;15.88;3.30;;;;;;;19.39;100.00;96302.56;5066587;28;20047;-72
2022/10/29 09:37:22;;;;;;;12.43;3.65;;;;;;;19.97;96.01;96302.66;5072007;28;20034;-73
2022/10/29 09:39:48;;;;;;;13.05;3.45;;;;;;;20.84;92.32;96304.63;5069518;28;20158;-72
2022/10/29 09:42:20;;;;;;;19.42;5.03;;;;;;;20.29;84.21;96300.66;5070276;28;20044;-72
2022/10/29 09:44:52;;;;;;;21.65;3.78;;;;;;;20.30;79.86;96296.09;5071343;28;20540;-72
2022/10/29 09:47:42;;;;;;;20.80;3.50;;;;;;;21.52;68.24;96301.38;5070168;28;20044;-72
2022/10/29 09:50:32;;;;;;;20.75;4.13;;;;;;;22.09;79.26;96296.69;5071285;28;20629;-72
2022/10/29 09:52:59;;;;;;;18.35;4.03;;;;;;;22.84;78.05;96293.34;5073163;28;20052;-71
2022/10/29 09:55:27;;;;;;;18.52;4.35;;;;;;;23.26;63.17;96298.66;5058535;28;20740;-72
2022/10/29 09:57:55;;;;;;;17.15;3.72;;;;;;;24.07;62.01;96297.41;5071254;28;20060;-73
2022/10/29 10:00:24;;;;;;;24.58;4.97;;;;;;;24.34;58.69;96285.94;5064717;28;20120;-73
2022/10/29 10:02:58;;;;;;;17.75;4.38;;;;;;;24.25;58.09;96281.78;5059080;28;20048;-71
2022/10/29 10:05:27;;;;;;;21.67;3.83;;;;;;;25.02;56.26;96276.28;5080721;28;20418;-73
2022/10/29 10:08:06;;;;;;;21.95;3.67;;;;;;;25.77;51.19;96282.81;5071273;28;20134;-73
2022/10/29 10:10:33;;;;;;;24.52;4.00;;;;;;;26.44;53.11;96263.09;5070537;28;20044;-73
2022/10/29 10:13:04;;;;;;;12.13;3.72;;;;;;;26.35;49.52;96267.94;5064570;28;20043;-73
2022/10/29 10:15:33;;;;;;;22.23;4.13;;;;;;;26.24;55.26;96272.31;5067014;28;20072;-72
2022/10/29 10:18:16;;;;;;;21.92;5.05;;;;;;;26.52;47.80;96271.34;5069853;28;20040;-73
2022/10/29 10:20:44;;;;;;;19.40;4.23;;;;;;;26.89;43.93;96262.84;5060235;28;20048;-72
2022/10/29 10:23:22;;;;;;;18.75;4.07;;;;;;;27.44;49.91;96260.75;5069071;28;20273;-72
2022/10/29 10:25:49;;;;;;;21.05;4.13;;;;;;;26.67;55.09;96262.41;5060301;28;20064;-72
2022/10/29 10:28:22;;;;;;;21.52;4.72;;;;;;;26.19;44.29;96259.09;5070003;28;20037;-72
2022/10/29 10:31:14;;;;;;;37.50;4.68;;;;;;;26.77;53.45;96253.75;5070331;28;20553;-71
2022/10/29 10:33:49;;;;;;;17.42;3.75;;;;;;;27.33;50.91;96251.66;5066349;28;20036;-72
2022/10/29 10:36:15;;;;;;;20.95;3.92;;;;;;;26.72;51.62;96243.25;5071329;28;20041;-72
2022/10/29 10:38:45;;;;;;;20.10;3.78;;;;;;;25.96;60.18;96240.88;5069171;28;20037;-72
2022/10/29 10:41:15;;;;;;;12.27;3.55;;;;;;;25.56;63.55;96239.19;5070125;28;20549;-72
2022/10/29 10:43:43;;;;;;;17.58;3.80;;;;;;;24.98;60.14;96239.63;5070674;28;20063;-73
2022/10/29 10:46:19;;;;;;;20.10;4.70;;;;;;;25.28;45.28;96228.47;5072558;28;20044;-73
2022/10/29 10:48:56;;;;;;;18.98;3.88;;;;;;;25.42;43.23;96221.53;5065055;28;20041;-72
2022/10/29 10:51:29;;;;;;;19.40;3.80;;;;;;;25.62;45.68;96221.63;5072373;28;20074;-70
2022/10/29 10:53:55;;;;;;;16.67;3.60;;;;;;;26.07;57.64;96223.00;5072826;28;20044;-72
2022/10/29 10:56:21;;;;;;;18.33;3.67;;;;;;;26.65;48.94;96216.09;5060250;28;20036;-72
2022/10/29 10:58:57;;;;;;;22.42;3.95;;;;;;;27.31;52.87;96219.59;5074916;28;20044;-72
2022/10/29 11:01:37;;;;;;;14.82;3.80;;;;;;;28.14;48.59;96210.06;5073677;28;20037;-72
2022/10/29 11:04:20;;;;;;;20.42;4.00;;;;;;;28.64;49.60;96214.53;5071249;28;20040;-72
2022/10/29 11:06:49;;;;;;;13.15;3.83;;;;;;;27.86;46.70;96215.03;5073581;28;20046;-72
2022/10/29 11:09:23;;;;;;;13.95;3.28;;;;;;;28.04;37.48;96205.25;5059740;28;20048;-72
2022/10/29 11:12:07;;;;;;;16.73;3.42;;;;;;;27.51;43.46;96205.25;5065705;28;20044;-71
2022/10/29 11:14:44;;;;;;;;;;;;;;;28.14;35.07;96199.22;5074656;28;20048;-71
2022/10/29 11:17:30;;;;;;;13.40;3.08;;;;;;;27.29;35.49;96194.06;5072963;28;19931;-72
2022/10/29 11:20:01;;;;;;;16.00;3.15;;;;;;;28.04;36.08;96196.38;5059789;28;20094;-73
2022/10/29 11:22:48;;;;;;;14.63;3.38;;;;;;;27.86;35.20;96190.69;5073139;28;20040;-73
2022/10/29 11:25:22;;;;;;;17.83;3.63;;;;;;;27.54;37.87;96193.72;5062114;28;20048;-72
2022/10/29 11:28:00;;;;;;;19.02;4.03;;;;;;;28.12;45.25;96190.69;5068672;28;20474;-73
2022/10/29 11:30:29;;;;;;;12.95;3.03;;;;;;;28.28;44.74;96176.97;5063404;28;20034;-73
2022/10/29 11:33:21;;;;;;;18.15;3.15;;;;;;;28.43;43.93;96182.53;5068181;28;20406;-73
2022/10/29 11:35:58;;;;;;;13.00;2.90;;;;;;;29.55;40.69;96171.63;5072386;28;20097;-73